Time;durP1;ratioP1;P1;durP2;ratioP2;P2;SDS_P1;SDS_P2;PMS_P1;PMS_P2;Temp;Humidity;BMP_temperature;BMP_pressure;BME280_temperature;BME280_humidity;BME280_pressure;Samples;Min_cycle;Max_cycle;Signal;HPM_P1;HPM_P2
2023/06/01 00:03:17;;;;;;;;;;;;;;;22.23;41.56;95745.81;10311573;28;2077;-67
2023/06/01 00:08:17;;;;;;;;;;;;;;;22.24;41.12;95747.38;10307841;28;1889;-66
2023/06/01 00:13:18;;;;;;;;;;;;;;;22.22;41.46;95741.59;10309119;28;1906;-67
2023/06/01 00:18:18;;;;;;;;;;;;;;;22.23;41.25;95748.44;10307848;28;1903;-67
2023/06/01 00:23:19;;;;;;;;;;;;;;;22.23;41.38;95747.66;10307772;28;1851;-67
2023/06/01 00:28:20;;;;;;;;;;;;;;;22.23;41.18;95750.28;10309003;28;4351;-67
2023/06/01 00:33:20;;;;;;;;;;;;;;;22.23;41.23;95751.09;10310152;28;2258;-67
2023/06/01 00:38:20;;;;;;;;;;;;;;;22.23;41.33;95745.81;10306855;28;1909;-67
2023/06/01 00:43:20;;;;;;;;;;;;;;;22.21;41.48;95737.38;10303795;28;1899;-67
2023/06/01 00:48:23;;;;;;;;;;;;;;;22.23;41.37;95737.88;10300529;28;1859;-67
2023/06/01 00:53:23;;;;;;;;;;;;;;;22.22;41.62;95733.66;10299374;28;2056;-67
2023/06/01 00:58:23;;;;;;;;;;;;;;;22.23;41.35;95726.53;10290540;28;1982;-67
2023/06/01 01:03:25;;;;;;;;;;;;;;;22.22;41.41;95736.31;10307131;28;2216;-67
2023/06/01 01:08:35;;;;;;;;;;;;;;;22.22;41.46;95738.94;10301344;28;1843;-67
2023/06/01 01:13:46;;;;;;;;;;;;;;;22.23;41.28;95732.59;10294579;28;1942;-67
2023/06/01 01:18:54;;;;;;;;;;;;;;;22.22;41.19;95728.38;10304054;28;1882;-67
2023/06/01 01:23:59;;;;;;;;;;;;;;;22.21;41.35;95729.47;10288343;28;1983;-67
2023/06/01 01:28:59;;;;;;;;;;;;;;;22.22;41.26;95724.94;10315008;28;4320;-67
2023/06/01 01:34:00;;;;;;;;;;;;;;;22.22;41.12;95723.09;10307697;28;1956;-67
2023/06/01 01:39:00;;;;;;;;;;;;;;;22.21;41.41;95718.91;10306418;28;1957;-67
2023/06/01 01:44:00;;;;;;;;;;;;;;;22.22;41.20;95722.31;10301958;28;2030;-66
2023/06/01 01:49:08;;;;;;;;;;;;;;;22.21;41.35;95723.41;10293481;28;1923;-66
2023/06/01 01:54:09;;;;;;;;;;;;;;;22.22;41.40;95724.94;10287248;28;1903;-67
2023/06/01 01:59:09;;;;;;;;;;;;;;;22.21;41.15;95732.09;10305302;28;1948;-67
2023/06/01 02:04:09;;;;;;;;;;;;;;;22.21;41.40;95737.38;10290459;28;1918;-67
2023/06/01 02:09:10;;;;;;;;;;;;;;;22.21;41.38;95729.47;10296208;28;1911;-68
2023/06/01 02:14:10;;;;;;;;;;;;;;;22.21;41.10;95720.75;10299297;28;1979;-68
2023/06/01 02:19:10;;;;;;;;;;;;;;;22.21;41.10;95732.09;10304279;28;1908;-68
2023/06/01 02:24:11;;;;;;;;;;;;;;;22.20;41.12;95725.25;10298612;28;2334;-66
2023/06/01 02:29:12;;;;;;;;;;;;;;;22.20;41.12;95730.53;10303653;28;1917;-66
2023/06/01 02:34:12;;;;;;;;;;;;;;;22.20;41.22;95730.53;10300517;28;1977;-66
2023/06/01 02:39:12;;;;;;;;;;;;;;;22.21;41.06;95724.19;10306019;28;1937;-68
2023/06/01 02:44:13;;;;;;;;;;;;;;;22.21;41.29;95724.19;10301204;28;1974;-67
2023/06/01 02:49:13;;;;;;;;;;;;;;;22.21;41.17;95721.53;10298759;28;1909;-68
2023/06/01 02:54:13;;;;;;;;;;;;;;;22.22;41.02;95723.09;10303170;28;1947;-66
2023/06/01 02:59:13;;;;;;;;;;;;;;;22.21;41.30;95718.09;10303582;28;1858;-68
2023/06/01 03:04:14;;;;;;;;;;;;;;;22.20;41.04;95722.59;10298968;28;1905;-66
2023/06/01 03:09:15;;;;;;;;;;;;;;;22.20;41.06;95712.03;10299302;28;1918;-68
2023/06/01 03:14:15;;;;;;;;;;;;;;;22.21;41.12;95720.75;10308721;28;1910;-67
2023/06/01 03:19:15;;;;;;;;;;;;;;;22.21;40.99;95726.81;10307452;28;2270;-68
2023/06/01 03:24:17;;;;;;;;;;;;;;;22.20;41.05;95725.25;10307845;28;1965;-68
2023/06/01 03:29:17;;;;;;;;;;;;;;;22.21;41.07;95726.81;10308511;28;4457;-69
2023/06/01 03:34:17;;;;;;;;;;;;;;;22.21;41.13;95720.75;10311254;28;1924;-68
2023/06/01 03:39:18;;;;;;;;;;;;;;;22.20;41.15;95725.25;10308978;28;2061;-69
2023/06/01 03:44:18;;;;;;;;;;;;;;;22.20;41.00;95722.59;10309997;28;1895;-69
2023/06/01 03:49:18;;;;;;;;;;;;;;;22.20;41.05;95727.88;10309253;28;1964;-68
2023/06/01 03:54:20;;;;;;;;;;;;;;;22.21;41.07;95731.31;10311638;28;1918;-68
2023/06/01 03:59:21;;;;;;;;;;;;;;;22.21;41.10;95731.31;10304581;28;1811;-68
2023/06/01 04:04:22;;;;;;;;;;;;;;;22.21;41.13;95728.69;10306767;28;2002;-67
2023/06/01 04:09:22;;;;;;;;;;;;;;;22.21;41.17;95728.69;10301676;28;1928;-67
2023/06/01 04:14:22;;;;;;;;;;;;;;;22.20;41.00;95727.88;10309295;28;1973;-69
2023/06/01 04:19:22;;;;;;;;;;;;;;;22.21;41.19;95732.09;10304203;28;2326;-68
2023/06/01 04:24:23;;;;;;;;;;;;;;;22.21;41.24;95731.31;10310421;28;2096;-68
2023/06/01 04:29:24;;;;;;;;;;;;;;;22.20;41.13;95733.16;10304118;28;4374;-68
2023/06/01 04:34:24;;;;;;;;;;;;;;;22.20;41.13;95730.53;10308117;28;1981;-69
2023/06/01 04:39:25;;;;;;;;;;;;;;;22.20;41.06;95730.53;10304809;28;1923;-68
2023/06/01 04:44:25;;;;;;;;;;;;;;;22.20;41.30;95725.25;10307164;28;1871;-68
2023/06/01 04:49:28;;;;;;;;;;;;;;;22.21;41.25;95733.97;10310232;28;1846;-68
2023/06/01 04:54:28;;;;;;;;;;;;;;;22.21;41.04;95736.59;10306967;28;2093;-68
2023/06/01 04:59:28;;;;;;;;;;;;;;;22.21;41.27;95740.03;10304507;28;1885;-68
2023/06/01 05:04:29;;;;;;;;;;;;;;;22.21;41.13;95736.59;10308145;28;1901;-68
2023/06/01 05:09:30;;;;;;;;;;;;;;;22.21;41.13;95739.22;10307589;28;1828;-68
2023/06/01 05:14:30;;;;;;;;;;;;;;;22.21;41.07;95740.03;10307065;28;2285;-68
2023/06/01 05:19:30;;;;;;;;;;;;;;;22.21;41.13;95742.66;10301923;28;1840;-68
2023/06/01 05:24:30;;;;;;;;;;;;;;;22.22;41.03;95740.78;10308052;28;1879;-68
2023/06/01 05:29:31;;;;;;;;;;;;;;;22.21;41.15;95740.03;10303647;28;4257;-68
2023/06/01 05:34:31;;;;;;;;;;;;;;;22.22;41.12;95746.88;10303418;28;2126;-68
2023/06/01 05:39:31;;;;;;;;;;;;;;;22.22;41.41;95743.44;10307901;28;1888;-67
2023/06/01 05:44:32;;;;;;;;;;;;;;;22.21;41.39;95742.66;10304354;28;1784;-68
2023/06/01 05:49:33;;;;;;;;;;;;;;;22.22;41.17;95738.16;10304194;28;1962;-68
2023/06/01 05:54:33;;;;;;;;;;;;;;;22.22;41.22;95744.22;10299810;28;1898;-68
2023/06/01 05:59:33;;;;;;;;;;;;;;;22.23;41.37;95740.53;10293802;28;1895;-72
2023/06/01 06:04:34;;;;;;;;;;;;;;;22.23;41.54;95740.53;10302602;28;1953;-68
2023/06/01 06:09:34;;;;;;;;;;;;;;;22.24;41.52;95746.56;10301271;28;2187;-69
2023/06/01 06:14:34;;;;;;;;;;;;;;;22.24;41.75;95750.00;10297110;28;1911;-68
2023/06/01 06:19:35;;;;;;;;;;;;;;;22.25;41.97;95754.22;10296910;28;1871;-68
2023/06/01 06:24:35;;;;;;;;;;;;;;;22.25;41.84;95754.22;10314033;28;1886;-67
2023/06/01 06:29:36;;;;;;;;;;;;;;;22.27;41.95;95751.31;10281761;28;4409;-68
2023/06/01 06:34:36;;;;;;;;;;;;;;;22.27;41.83;95746.81;10300083;28;2001;-68
2023/06/01 06:39:37;;;;;;;;;;;;;;;22.27;41.71;95752.09;10298754;28;1882;-68
2023/06/01 06:44:37;;;;;;;;;;;;;;;22.27;42.08;95754.72;10281366;28;2181;-68
2023/06/01 06:49:37;;;;;;;;;;;;;;;22.29;41.94;95755.22;10308687;28;1906;-69
2023/06/01 06:54:38;;;;;;;;;;;;;;;22.28;41.87;95751.00;10302910;28;1914;-68
2023/06/01 06:59:38;;;;;;;;;;;;;;;22.29;42.13;95754.44;10305937;28;1855;-68
2023/06/01 07:04:39;;;;;;;;;;;;;;;22.29;42.13;95749.16;10305714;28;2281;-67
2023/06/01 07:09:40;;;;;;;;;;;;;;;22.29;42.34;95754.44;10309506;28;1842;-68
2023/06/01 07:14:41;;;;;;;;;;;;;;;22.30;42.12;95751.50;10302813;28;1928;-69
2023/06/01 07:19:41;;;;;;;;;;;;;;;22.29;41.93;95743.88;10306320;28;1942;-68
2023/06/01 07:24:41;;;;;;;;;;;;;;;22.29;42.02;95751.81;10306999;28;1824;-68
2023/06/01 07:29:44;;;;;;;;;;;;;;;22.29;41.98;95739.38;10309543;28;4370;-68
2023/06/01 07:34:44;;;;;;;;;;;;;;;22.30;41.90;95745.44;10307144;28;2009;-69
2023/06/01 07:39:44;;;;;;;;;;;;;;;22.28;42.16;95745.72;10304694;28;1977;-68
2023/06/01 07:44:45;;;;;;;;;;;;;;;22.29;42.03;95749.16;10301962;28;1890;-68
2023/06/01 07:49:45;;;;;;;;;;;;;;;22.31;42.39;95752.31;10301498;28;1910;-69
2023/06/01 07:54:45;;;;;;;;;;;;;;;22.30;41.99;95742.78;10307435;28;1927;-68
2023/06/01 07:59:46;;;;;;;;;;;;;;;22.30;42.20;95738.31;10301149;28;2238;-68
2023/06/01 08:04:47;;;;;;;;;;;;;;;22.30;42.09;95740.94;10307961;28;1939;-68
2023/06/01 08:09:47;;;;;;;;;;;;;;;22.31;42.02;95739.88;10304294;28;1868;-68
2023/06/01 08:14:47;;;;;;;;;;;;;;;22.30;42.33;95743.59;10303623;28;2086;-69
2023/06/01 08:19:48;;;;;;;;;;;;;;;22.32;42.18;95738.00;10305206;28;1843;-69
2023/06/01 08:24:48;;;;;;;;;;;;;;;22.31;42.25;95739.88;10299860;28;1901;-69
2023/06/01 08:29:48;;;;;;;;;;;;;;;22.31;42.28;95742.53;10302165;28;4363;-68
2023/06/01 08:34:49;;;;;;;;;;;;;;;22.31;42.15;95739.09;10308317;28;1899;-69
2023/06/01 08:39:49;;;;;;;;;;;;;;;22.32;42.15;95738.00;10298523;28;1915;-68
2023/06/01 08:44:49;;;;;;;;;;;;;;;22.32;42.33;95738.81;10289463;28;2017;-67
2023/06/01 08:49:50;;;;;;;;;;;;;;;22.32;42.08;95738.81;10287625;28;1915;-68
2023/06/01 08:54:50;;;;;;;;;;;;;;;22.32;42.15;95738.81;10314437;28;1983;-68
2023/06/01 08:59:50;;;;;;;;;;;;;;;22.31;42.30;95731.97;10303615;28;2231;-68
2023/06/01 09:04:51;;;;;;;;;;;;;;;22.33;42.17;95734.31;10302611;28;1907;-68
2023/06/01 09:09:51;;;;;;;;;;;;;;;22.33;42.05;95729.81;10283429;28;1940;-69
2023/06/01 09:15:06;;;;;;;;;;;;;;;22.33;42.17;95726.41;10300527;28;1918;-68
2023/06/01 09:20:06;;;;;;;;;;;;;;;22.33;42.26;95731.69;10302627;28;1909;-69
2023/06/01 09:25:07;;;;;;;;;;;;;;;22.35;42.46;95742.75;10283894;28;2117;-68
2023/06/01 09:30:07;;;;;;;;;;;;;;;22.34;42.28;95739.31;10303779;28;4409;-68
2023/06/01 09:35:07;;;;;;;;;;;;;;;22.33;42.18;95729.81;10308444;28;1937;-69
2023/06/01 09:40:17;;;;;;;;;;;;;;;22.34;42.27;95728.75;10297010;28;1937;-68
2023/06/01 09:45:18;;;;;;;;;;;;;;;22.35;42.32;95735.63;10299241;28;1929;-68
2023/06/01 09:50:31;;;;;;;;;;;;;;;22.36;42.34;95723.19;10301068;28;1903;-68
2023/06/01 09:55:31;;;;;;;;;;;;;;;22.37;42.64;95720.25;10306443;28;2285;-68
2023/06/01 10:00:33;;;;;;;;;;;;;;;22.39;43.02;95712.03;10299339;28;1998;-68
2023/06/01 10:05:33;;;;;;;;;;;;;;;22.42;43.79;95706.22;10306678;28;1835;-69
2023/06/01 10:10:33;;;;;;;;;;;;;;;22.43;43.41;95703.28;10314619;28;2192;-68
2023/06/01 10:15:34;;;;;;;;;;;;;;;22.44;43.37;95701.44;10289329;28;2165;-67
2023/06/01 10:20:35;;;;;;;;;;;;;;;22.44;43.10;95702.19;10298791;28;1911;-67
2023/06/01 10:25:37;;;;;;;;;;;;;;;22.44;43.13;95699.53;10301237;28;1886;-67
2023/06/01 10:30:38;;;;;;;;;;;;;;;22.44;42.79;95688.97;10302797;28;1974;-68
2023/06/01 10:35:41;;;;;;;;;;;;;;;22.47;42.45;95698.19;10292337;28;1987;-68
2023/06/01 10:40:41;;;;;;;;;;;;;;;22.46;42.78;95696.63;10296307;28;1936;-68
2023/06/01 10:45:42;;;;;;;;;;;;;;;22.46;42.92;95686.84;10299019;28;1952;-67
2023/06/01 10:50:42;;;;;;;;;;;;;;;22.46;43.33;95686.84;10298640;28;2427;-67
2023/06/01 10:55:42;;;;;;;;;;;;;;;22.47;43.26;95683.13;10306120;28;1973;-67
2023/06/01 11:00:42;;;;;;;;;;;;;;;22.47;43.14;95677.84;10293377;28;1921;-67
2023/06/01 11:05:46;;;;;;;;;;;;;;;22.49;43.09;95674.91;10280666;28;1915;-67
2023/06/01 11:10:52;;;;;;;;;;;;;;;22.49;43.21;95682.84;10296847;28;1882;-67
2023/06/01 11:16:18;;;;;;;;;;;;;;;22.49;43.39;95667.78;10296894;28;1891;-67
2023/06/01 11:21:21;;;;;;;;;;;;;;;22.50;43.38;95666.69;10300526;28;1954;-67
2023/06/01 11:26:24;;;;;;;;;;;;;;;22.50;43.43;95658.00;10275429;28;1864;-67
2023/06/01 11:31:24;;;;;;;;;;;;;;;22.51;43.49;95652.44;10301096;28;1942;-67
2023/06/01 11:36:25;;;;;;;;;;;;;;;22.51;43.28;95649.78;10288739;28;1951;-67
2023/06/01 11:41:26;;;;;;;;;;;;;;;22.53;43.36;95646.84;10300090;28;1914;-67
2023/06/01 11:46:28;;;;;;;;;;;;;;;22.52;43.37;95638.13;10308111;28;1848;-67
2023/06/01 11:51:29;;;;;;;;;;;;;;;22.53;43.60;95644.22;10303951;28;1879;-67
2023/06/01 11:56:33;;;;;;;;;;;;;;;22.54;43.56;95640.50;10292781;28;1940;-67
2023/06/01 12:01:33;;;;;;;;;;;;;;;22.54;43.38;95635.22;10306795;28;1916;-67
2023/06/01 12:06:33;;;;;;;;;;;;;;;22.55;43.58;95636.78;10312056;28;1908;-67
2023/06/01 12:11:34;;;;;;;;;;;;;;;22.53;43.64;95623.88;10287268;28;1912;-66
2023/06/01 12:16:53;;;;;;;;;;;;;;;22.56;43.33;95622.53;10305348;28;1887;-67
2023/06/01 12:21:55;;;;;;;;;;;;;;;22.55;43.40;95613.81;10303666;28;1874;-67
2023/06/01 12:26:56;;;;;;;;;;;;;;;22.58;43.58;95615.13;10304502;28;4312;-67
2023/06/01 12:31:56;;;;;;;;;;;;;;;22.58;43.67;95604.56;10306184;28;1954;-67
2023/06/01 12:36:56;;;;;;;;;;;;;;;22.57;43.75;95609.00;10304393;28;1954;-67
2023/06/01 12:41:57;;;;;;;;;;;;;;;22.58;43.52;95600.06;10303097;28;2519;-67
2023/06/01 12:46:58;;;;;;;;;;;;;;;22.57;43.77;95590.53;10306594;28;1945;-66
2023/06/01 12:51:58;;;;;;;;;;;;;;;22.59;43.44;95596.31;10302237;28;1878;-67
2023/06/01 12:56:58;;;;;;;;;;;;;;;22.59;43.54;95590.25;10304313;28;1907;-66
2023/06/01 13:01:59;;;;;;;;;;;;;;;22.60;43.81;95581.28;10301259;28;1881;-67
2023/06/01 13:06:59;;;;;;;;;;;;;;;22.60;43.55;95583.91;10305243;28;1878;-67
2023/06/01 13:12:00;;;;;;;;;;;;;;;22.61;43.50;95588.91;10301001;28;1891;-65
2023/06/01 13:17:00;;;;;;;;;;;;;;;22.62;43.81;95576.47;10297630;28;1910;-66
2023/06/01 13:22:00;;;;;;;;;;;;;;;22.61;43.62;95573.03;10300537;28;1843;-63
2023/06/01 13:27:03;;;;;;;;;;;;;;;22.62;43.70;95561.41;10304105;28;4177;-66
2023/06/01 13:32:04;;;;;;;;;;;;;;;22.63;43.95;95559.53;10301220;28;1989;-66
2023/06/01 13:37:04;;;;;;;;;;;;;;;22.63;43.70;95557.69;10299714;28;1923;-67
2023/06/01 13:42:06;;;;;;;;;;;;;;;22.62;43.65;95548.22;10302008;28;2238;-66
2023/06/01 13:47:07;;;;;;;;;;;;;;;22.63;43.91;95547.13;10300929;28;1877;-66
2023/06/01 13:52:08;;;;;;;;;;;;;;;22.64;43.89;95539.97;10296863;28;1901;-66
2023/06/01 13:57:08;;;;;;;;;;;;;;;22.64;43.92;95538.13;10302401;28;1930;-67
2023/06/01 14:02:09;;;;;;;;;;;;;;;22.65;43.97;95530.97;10299543;28;2133;-66
2023/06/01 14:07:09;;;;;;;;;;;;;;;22.65;43.93;95521.19;10301880;28;1859;-66
2023/06/01 14:12:09;;;;;;;;;;;;;;;22.65;43.95;95515.91;10301475;28;1889;-68
2023/06/01 14:17:10;;;;;;;;;;;;;;;22.64;43.92;95517.00;10301247;28;1901;-68
2023/06/01 14:22:10;;;;;;;;;;;;;;;22.64;43.72;95511.72;10298364;28;1917;-68
2023/06/01 14:27:11;;;;;;;;;;;;;;;22.65;43.93;95512.47;10303830;28;4382;-68
2023/06/01 14:32:11;;;;;;;;;;;;;;;22.65;43.89;95510.63;10285925;28;1915;-68
2023/06/01 14:37:13;;;;;;;;;;;;;;;22.65;43.71;95515.91;10303031;28;2444;-68
2023/06/01 14:42:13;;;;;;;;;;;;;;;22.65;43.93;95505.34;10301091;28;1862;-67
2023/06/01 14:47:14;;;;;;;;;;;;;;;22.66;43.97;95500.84;10301457;28;1840;-68
2023/06/01 14:52:14;;;;;;;;;;;;;;;22.66;43.58;95500.84;10301075;28;1862;-68
2023/06/01 14:57:15;;;;;;;;;;;;;;;22.67;43.85;95497.13;10303296;28;1938;-68
2023/06/01 15:02:15;;;;;;;;;;;;;;;22.67;43.89;95488.44;10299358;28;1903;-67
2023/06/01 15:07:15;;;;;;;;;;;;;;;22.67;43.63;95489.97;10299470;28;1894;-68
2023/06/01 15:12:16;;;;;;;;;;;;;;;22.67;43.81;95492.63;10308161;28;1897;-67
2023/06/01 15:17:16;;;;;;;;;;;;;;;22.67;43.71;95497.13;10310037;28;1950;-67
2023/06/01 15:22:17;;;;;;;;;;;;;;;22.67;43.60;95492.63;10308885;28;1940;-66
2023/06/01 15:27:19;;;;;;;;;;;;;;;22.69;43.74;95483.63;10307223;28;1965;-67
2023/06/01 15:32:19;;;;;;;;;;;;;;;22.68;43.77;95488.13;10310518;28;2288;-68
2023/06/01 15:37:19;;;;;;;;;;;;;;;22.67;43.78;95489.97;10309438;28;1903;-67
2023/06/01 15:42:20;;;;;;;;;;;;;;;22.67;43.96;95489.97;10304383;28;1843;-68
2023/06/01 15:47:20;;;;;;;;;;;;;;;22.67;43.78;95484.69;10297786;28;2113;-68
2023/06/01 15:52:20;;;;;;;;;;;;;;;22.70;43.80;95482.53;10305943;28;2097;-67
2023/06/01 15:57:20;;;;;;;;;;;;;;;22.68;43.63;95467.00;10302849;28;1953;-66
2023/06/01 16:02:21;;;;;;;;;;;;;;;22.69;43.77;95465.13;10298524;28;2065;-67
2023/06/01 16:07:21;;;;;;;;;;;;;;;22.68;43.83;95461.69;10307395;28;2055;-68
2023/06/01 16:12:21;;;;;;;;;;;;;;;22.71;43.27;95455.06;10308319;28;1914;-64
2023/06/01 16:17:21;;;;;;;;;;;;;;;22.69;43.83;95454.56;10297824;28;2097;-65
2023/06/01 16:22:22;;;;;;;;;;;;;;;22.70;43.59;95454.25;10304080;28;1935;-64
2023/06/01 16:27:22;;;;;;;;;;;;;;;22.70;44.16;95458.75;10299829;28;4331;-64
2023/06/01 16:32:24;;;;;;;;;;;;;;;22.70;44.13;95462.19;10307363;28;2181;-64
2023/06/01 16:37:24;;;;;;;;;;;;;;;22.72;44.00;95456.59;10307834;28;1883;-64
2023/06/01 16:42:24;;;;;;;;;;;;;;;22.72;44.48;95451.31;10302537;28;1853;-65
2023/06/01 16:47:25;;;;;;;;;;;;;;;22.73;44.25;95452.91;10306121;28;1926;-66
2023/06/01 16:52:25;;;;;;;;;;;;;;;22.72;43.93;95452.13;10305012;28;1903;-66
2023/06/01 16:57:28;;;;;;;;;;;;;;;22.73;44.15;95448.38;10304188;28;1874;-66
2023/06/01 17:02:30;;;;;;;;;;;;;;;22.73;44.13;95448.38;10305493;28;1800;-65
2023/06/01 17:07:30;;;;;;;;;;;;;;;22.74;44.05;95444.66;10303250;28;1878;-65
2023/06/01 17:12:31;;;;;;;;;;;;;;;22.75;43.71;95456.03;10307067;28;2071;-65
2023/06/01 17:17:32;;;;;;;;;;;;;;;22.75;43.49;95454.16;10302017;28;1878;-64
2023/06/01 17:22:32;;;;;;;;;;;;;;;22.77;44.34;95456.53;10284500;28;1921;-62
2023/06/01 17:27:32;;;;;;;;;;;;;;;22.78;44.74;95456.22;10309043;28;1854;-62
2023/06/01 17:32:32;;;;;;;;;;;;;;;22.81;44.58;95450.34;10307817;28;1974;-65
2023/06/01 17:37:33;;;;;;;;;;;;;;;22.82;44.78;95456.41;10296831;28;1902;-64
2023/06/01 17:42:33;;;;;;;;;;;;;;;22.81;44.84;95454.84;10304778;28;2102;-67
2023/06/01 17:47:33;;;;;;;;;;;;;;;22.82;44.78;95448.47;10300552;28;1975;-63
2023/06/01 17:52:35;;;;;;;;;;;;;;;22.81;44.82;95454.84;10296129;28;1948;-64
2023/06/01 17:57:35;;;;;;;;;;;;;;;22.82;44.82;95448.47;10305705;28;2062;-63
2023/06/01 18:02:36;;;;;;;;;;;;;;;22.82;45.02;95446.63;10304033;28;1945;-64
2023/06/01 18:07:36;;;;;;;;;;;;;;;22.82;45.15;95441.34;10302098;28;1878;-64
2023/06/01 18:12:36;;;;;;;;;;;;;;;22.83;45.20;95436.84;10304630;28;1970;-64
2023/06/01 18:17:36;;;;;;;;;;;;;;;22.83;44.75;95448.22;10302093;28;1889;-65
2023/06/01 18:22:37;;;;;;;;;;;;;;;22.82;44.94;95451.91;10302372;28;2382;-62
2023/06/01 18:27:37;;;;;;;;;;;;;;;22.82;44.63;95453.75;10304908;28;4458;-63
2023/06/01 18:32:37;;;;;;;;;;;;;;;22.81;44.84;95452.22;10299557;28;1939;-61
2023/06/01 18:37:37;;;;;;;;;;;;;;;22.80;44.86;95456.72;10301566;28;2148;-61
2023/06/01 18:42:38;;;;;;;;;;;;;;;22.80;44.83;95459.34;10303561;28;1899;-63
2023/06/01 18:47:38;;;;;;;;;;;;;;;22.80;44.66;95461.19;10308952;28;1878;-62
2023/06/01 18:52:41;;;;;;;;;;;;;;;22.80;44.72;95463.84;10306337;28;2109;-61
2023/06/01 18:57:41;;;;;;;;;;;;;;;22.79;44.59;95462.28;10313674;28;1890;-61
2023/06/01 19:02:43;;;;;;;;;;;;;;;22.79;44.53;95463.09;10315050;28;1925;-61
2023/06/01 19:07:44;;;;;;;;;;;;;;;22.78;44.38;95466.00;10315471;28;1962;-61
2023/06/01 19:12:44;;;;;;;;;;;;;;;22.78;44.63;95466.78;10311629;28;1914;-61
2023/06/01 19:17:44;;;;;;;;;;;;;;;22.76;44.62;95468.16;10307372;28;2269;-64
2023/06/01 19:22:45;;;;;;;;;;;;;;;22.80;45.44;95474.41;10308733;28;1886;-63
2023/06/01 19:27:46;;;;;;;;;;;;;;;22.83;45.87;95479.91;10305898;28;4562;-63
2023/06/01 19:32:47;;;;;;;;;;;;;;;22.86;46.76;95479.31;10312438;28;1891;-60
2023/06/01 19:37:47;;;;;;;;;;;;;;;22.88;46.88;95486.94;10305273;28;1886;-63
2023/06/01 19:42:47;;;;;;;;;;;;;;;22.89;46.76;95480.59;10321767;28;1916;-63
2023/06/01 19:47:48;;;;;;;;;;;;;;;22.91;47.14;95486.38;10311356;28;1931;-63
2023/06/01 19:52:49;;;;;;;;;;;;;;;22.91;47.28;95486.38;10310045;28;1975;-63
2023/06/01 19:57:49;;;;;;;;;;;;;;;22.91;46.93;95486.38;10305424;28;1959;-63
2023/06/01 20:02:50;;;;;;;;;;;;;;;22.91;47.06;95479.22;10310023;28;1894;-61
2023/06/01 20:07:55;;;;;;;;;;;;;;;22.91;47.02;95479.22;10304465;28;1882;-63
2023/06/01 20:12:55;;;;;;;;;;;;;;;22.91;46.84;95481.88;10308354;28;2270;-63
2023/06/01 20:17:57;;;;;;;;;;;;;;;22.92;46.97;95482.63;10305160;28;2181;-62
2023/06/01 20:23:00;;;;;;;;;;;;;;;22.91;46.65;95484.50;10306799;28;2042;-63
2023/06/01 20:28:05;;;;;;;;;;;;;;;22.91;46.93;95487.16;10309453;28;4390;-64
2023/06/01 20:33:05;;;;;;;;;;;;;;;22.89;46.94;95476.09;10308478;28;1944;-63
2023/06/01 20:38:06;;;;;;;;;;;;;;;22.90;46.75;95479.50;10292187;28;1905;-63
2023/06/01 20:43:06;;;;;;;;;;;;;;;22.90;46.51;95479.50;10294397;28;1860;-64
2023/06/01 20:48:06;;;;;;;;;;;;;;;22.89;46.79;95484.03;10303819;28;2081;-64
2023/06/01 20:53:06;;;;;;;;;;;;;;;22.90;46.75;95482.16;10301167;28;1980;-64
2023/06/01 20:58:07;;;;;;;;;;;;;;;22.90;46.65;95479.50;10303811;28;1830;-63
2023/06/01 21:03:07;;;;;;;;;;;;;;;22.89;46.58;95478.75;10305041;28;2026;-63
2023/06/01 21:08:07;;;;;;;;;;;;;;;22.89;46.37;95477.94;10304827;28;2301;-65
2023/06/01 21:13:07;;;;;;;;;;;;;;;22.89;46.46;95472.66;10305981;28;1947;-63
2023/06/01 21:18:08;;;;;;;;;;;;;;;22.89;46.13;95475.31;10304295;28;1996;-63
2023/06/01 21:23:08;;;;;;;;;;;;;;;22.86;45.89;95471.38;10298562;28;1913;-67
2023/06/01 21:28:08;;;;;;;;;;;;;;;22.87;45.63;95474.81;10306194;28;1839;-64
2023/06/01 21:33:08;;;;;;;;;;;;;;;22.85;45.78;95471.69;10304929;28;1895;-65
2023/06/01 21:38:09;;;;;;;;;;;;;;;22.85;45.98;95471.69;10303639;28;1961;-64
2023/06/01 21:43:09;;;;;;;;;;;;;;;22.85;45.98;95472.47;10303342;28;2027;-65
2023/06/01 21:48:09;;;;;;;;;;;;;;;22.85;46.07;95479.63;10296018;28;1942;-64
2023/06/01 21:53:10;;;;;;;;;;;;;;;22.85;46.20;95471.69;10298386;28;2041;-64
2023/06/01 21:58:11;;;;;;;;;;;;;;;22.85;45.99;95477.75;10299098;28;1997;-64
2023/06/01 22:03:11;;;;;;;;;;;;;;;22.84;46.08;95468.25;10300191;28;1905;-64
2023/06/01 22:08:11;;;;;;;;;;;;;;;22.84;45.89;95480.69;10304092;28;1859;-64
2023/06/01 22:13:11;;;;;;;;;;;;;;;22.85;45.85;95482.25;10303317;28;1891;-64
2023/06/01 22:18:12;;;;;;;;;;;;;;;22.84;45.92;95473.53;10303118;28;1959;-64
2023/06/01 22:23:12;;;;;;;;;;;;;;;22.84;45.98;95470.09;10301841;28;2106;-64
2023/06/01 22:28:12;;;;;;;;;;;;;;;22.84;45.93;95470.09;10301705;28;4409;-64
2023/06/01 22:33:12;;;;;;;;;;;;;;;22.84;45.67;95465.63;10301462;28;1992;-63
2023/06/01 22:38:13;;;;;;;;;;;;;;;22.84;45.76;95467.47;10301332;28;2074;-64
2023/06/01 22:43:13;;;;;;;;;;;;;;;22.84;45.69;95465.63;10305993;28;1839;-64
2023/06/01 22:48:14;;;;;;;;;;;;;;;22.84;45.72;95473.53;10305573;28;2090;-64
2023/06/01 22:53:15;;;;;;;;;;;;;;;22.84;45.82;95475.38;10301723;28;1906;-63
2023/06/01 22:58:17;;;;;;;;;;;;;;;22.83;45.51;95476.47;10304214;28;1954;-64
2023/06/01 23:03:17;;;;;;;;;;;;;;;22.83;45.97;95477.28;10296178;28;2250;-63
2023/06/01 23:08:19;;;;;;;;;;;;;;;22.83;45.69;95471.19;10302985;28;1906;-64
2023/06/01 23:13:27;;;;;;;;;;;;;;;22.82;45.43;95478.34;10297547;28;2106;-63
2023/06/01 23:18:28;;;;;;;;;;;;;;;22.83;45.81;95479.91;10300460;28;2121;-64
2023/06/01 23:23:30;;;;;;;;;;;;;;;22.82;45.75;95473.06;10301766;28;1879;-64
2023/06/01 23:28:31;;;;;;;;;;;;;;;22.82;45.46;95464.34;10302576;28;4454;-64
2023/06/01 23:33:31;;;;;;;;;;;;;;;22.81;45.38;95465.44;10313082;28;1898;-63
2023/06/01 23:38:31;;;;;;;;;;;;;;;22.80;45.52;95469.13;10313551;28;1887;-64
2023/06/01 23:43:32;;;;;;;;;;;;;;;22.80;45.37;95464.63;10309040;28;2092;-64
2023/06/01 23:48:35;;;;;;;;;;;;;;;22.80;45.25;95462.00;10310433;28;1925;-64
2023/06/01 23:53:35;;;;;;;;;;;;;;;22.81;45.26;95454.84;10306543;28;1989;-64
2023/06/01 23:58:36;;;;;;;;;;;;;;;22.80;44.93;95458.56;10311012;28;2431;-64
